Time;durP1;ratioP1;P1;durP2;ratioP2;P2;SDS_P1;SDS_P2;PMS_P1;PMS_P2;Temp;Humidity;BMP_temperature;BMP_pressure;BME280_temperature;BME280_humidity;BME280_pressure;Samples;Min_cycle;Max_cycle;Signal;HPM_P1;HPM_P2
2022/05/16 00:02:42;;;;;;;0.93;0.80;;;10.00;99.30;;;;;;6270879;28;20211;-68
2022/05/16 00:05:48;;;;;;;0.63;0.63;;;10.00;99.50;;;;;;6272392;28;20211;-67
2022/05/16 00:08:55;;;;;;;0.90;0.90;;;10.00;99.00;;;;;;6271526;28;20579;-68
2022/05/16 00:12:01;;;;;;;1.85;0.80;;;9.90;98.90;;;;;;6272370;28;20230;-68
2022/05/16 00:15:09;;;;;;;1.38;0.80;;;10.00;98.70;;;;;;6271100;28;20582;-67
2022/05/16 00:18:16;;;;;;;0.60;0.60;;;10.00;98.80;;;;;;6274259;28;20228;-67
2022/05/16 00:21:22;;;;;;;0.65;0.65;;;9.90;98.80;;;;;;6275015;28;20212;-68
2022/05/16 00:24:29;;;;;;;0.70;0.70;;;9.90;98.90;;;;;;6276314;28;20235;-68
2022/05/16 00:27:35;;;;;;;0.90;0.60;;;9.90;97.90;;;;;;6276047;28;20211;-68
2022/05/16 00:30:42;;;;;;;1.58;0.82;;;9.90;97.80;;;;;;6276922;28;20208;-67
2022/05/16 00:33:48;;;;;;;0.90;0.90;;;9.90;98.10;;;;;;6274861;28;20330;-68
2022/05/16 00:36:53;;;;;;;0.80;0.80;;;9.90;97.80;;;;;;6275557;28;20218;-68
2022/05/16 00:40:00;;;;;;;1.27;0.70;;;9.90;96.50;;;;;;6275556;28;20230;-68
2022/05/16 00:43:12;;;;;;;1.45;0.90;;;9.90;96.30;;;;;;6275470;28;20245;-67
2022/05/16 00:46:19;;;;;;;0.90;0.90;;;9.90;95.70;;;;;;6275038;28;20291;-68
2022/05/16 00:49:28;;;;;;;3.20;0.90;;;9.80;95.30;;;;;;6274411;28;20228;-67
2022/05/16 00:52:36;;;;;;;0.90;0.90;;;9.80;94.60;;;;;;6274557;28;20632;-68
2022/05/16 00:55:43;;;;;;;0.90;0.90;;;9.80;94.50;;;;;;6274816;28;20303;-68
2022/05/16 00:58:49;;;;;;;0.90;0.90;;;9.80;94.40;;;;;;6274286;28;20238;-67
2022/05/16 01:05:18;;;;;;;1.30;1.20;;;9.70;93.70;;;;;;6273684;28;20247;-67
2022/05/16 01:08:26;;;;;;;0.80;0.80;;;9.70;93.60;;;;;;6274016;28;20252;-67
2022/05/16 01:11:34;;;;;;;1.27;0.82;;;9.70;93.10;;;;;;6274155;28;20326;-68
2022/05/16 01:14:47;;;;;;;0.80;0.80;;;9.60;92.20;;;;;;6274458;28;20236;-68
2022/05/16 01:17:53;;;;;;;0.90;0.90;;;9.70;92.20;;;;;;6273318;28;20228;-68
2022/05/16 01:21:17;;;;;;;0.80;0.80;;;9.60;91.30;;;;;;6273780;28;20214;-68
2022/05/16 01:24:25;;;;;;;0.80;0.80;;;9.60;90.90;;;;;;6274029;28;20232;-68
2022/05/16 01:27:48;;;;;;;1.05;1.05;;;9.50;90.20;;;;;;6273220;28;20214;-70
2022/05/16 01:30:54;;;;;;;0.77;0.77;;;9.60;88.80;;;;;;6273390;28;20204;-68
2022/05/16 01:34:00;;;;;;;0.80;0.80;;;9.60;86.90;;;;;;6273340;28;20247;-67
2022/05/16 01:37:06;;;;;;;0.90;0.90;;;9.60;86.00;;;;;;6273687;28;20215;-68
2022/05/16 01:40:14;;;;;;;2.92;0.80;;;9.50;85.80;;;;;;6272721;28;20220;-67
2022/05/16 01:43:23;;;;;;;2.17;0.90;;;9.60;86.50;;;;;;6272575;28;20235;-67
2022/05/16 01:46:33;;;;;;;1.00;1.00;;;9.60;86.40;;;;;;6273456;28;20207;-67
2022/05/16 01:49:38;;;;;;;0.88;0.88;;;9.50;87.00;;;;;;6272984;28;20224;-68
2022/05/16 01:52:44;;;;;;;1.50;0.90;;;9.50;85.60;;;;;;6272820;28;20204;-67
2022/05/16 01:55:50;;;;;;;0.65;0.65;;;9.50;83.60;;;;;;6273536;28;20234;-67
2022/05/16 01:58:56;;;;;;;0.88;0.88;;;9.50;84.20;;;;;;6271525;28;20592;-68
2022/05/16 02:02:01;;;;;;;0.90;0.90;;;9.50;84.10;;;;;;6272915;28;20217;-68
2022/05/16 02:05:07;;;;;;;0.80;0.80;;;9.40;83.60;;;;;;6273168;28;20322;-67
2022/05/16 02:08:16;;;;;;;1.02;0.95;;;9.40;83.00;;;;;;6272056;28;20232;-68
2022/05/16 02:11:23;;;;;;;0.80;0.80;;;9.40;81.80;;;;;;6272932;28;20238;-67
2022/05/16 02:14:28;;;;;;;1.48;0.80;;;9.30;81.90;;;;;;6272479;28;20236;-67
2022/05/16 02:17:33;;;;;;;0.73;0.73;;;9.30;81.10;;;;;;6272819;28;20627;-68
2022/05/16 02:20:39;;;;;;;2.08;0.88;;;9.20;79.70;;;;;;6276329;28;20557;-67
2022/05/16 02:27:17;;;;;;;0.80;0.80;;;9.10;79.40;;;;;;6292117;28;20214;-66
2022/05/16 02:30:23;;;;;;;2.05;0.90;;;9.10;78.30;;;;;;6291405;28;20234;-67
2022/05/16 02:33:29;;;;;;;1.48;0.80;;;9.10;78.00;;;;;;6289430;28;20698;-68
2022/05/16 02:36:34;;;;;;;1.27;0.95;;;9.10;77.50;;;;;;6272629;28;20243;-69
2022/05/16 02:39:44;;;;;;;3.45;1.52;;;9.00;76.50;;;;;;6271639;28;20576;-68
2022/05/16 02:42:51;;;;;;;3.67;1.13;;;9.10;77.10;;;;;;6270517;28;20238;-68
2022/05/16 02:45:56;;;;;;;0.80;0.80;;;9.10;77.60;;;;;;6272214;28;20208;-67
2022/05/16 02:49:02;;;;;;;3.63;0.80;;;9.00;75.20;;;;;;6271744;28;20223;-67
2022/05/16 02:52:08;;;;;;;1.88;0.80;;;8.90;76.10;;;;;;6271903;28;20208;-68
2022/05/16 02:55:17;;;;;;;0.98;0.98;;;8.90;75.70;;;;;;6270987;28;20599;-68
2022/05/16 02:58:25;;;;;;;0.90;0.90;;;9.00;77.10;;;;;;6271533;28;20570;-67
2022/05/16 03:01:34;;;;;;;1.75;0.70;;;8.90;76.40;;;;;;6271782;28;20208;-67
2022/05/16 03:04:40;;;;;;;2.63;0.90;;;8.90;77.40;;;;;;6249871;28;20231;-68
2022/05/16 03:07:45;;;;;;;0.75;0.75;;;8.90;76.20;;;;;;6270976;28;20204;-67
2022/05/16 03:10:50;;;;;;;0.90;0.90;;;8.90;76.10;;;;;;6272056;28;20207;-68
2022/05/16 03:13:57;;;;;;;0.90;0.90;;;8.90;75.00;;;;;;6271050;28;20235;-68
2022/05/16 03:17:03;;;;;;;0.98;0.95;;;8.90;74.80;;;;;;6271540;28;20224;-68
2022/05/16 03:20:11;;;;;;;0.90;0.90;;;9.00;74.50;;;;;;6271046;28;20224;-69
2022/05/16 03:23:16;;;;;;;1.70;0.93;;;8.90;74.20;;;;;;6270963;28;20230;-67
2022/05/16 03:26:21;;;;;;;0.85;0.85;;;8.90;73.30;;;;;;6271261;28;20219;-67
2022/05/16 03:29:28;;;;;;;2.35;1.00;;;8.90;74.10;;;;;;6271183;28;20227;-68
2022/05/16 03:32:36;;;;;;;0.70;0.70;;;8.90;74.30;;;;;;6270995;28;20215;-68
2022/05/16 03:35:41;;;;;;;1.20;1.20;;;9.00;74.20;;;;;;6271116;28;20317;-68
2022/05/16 03:42:18;;;;;;;0.90;0.90;;;8.80;72.80;;;;;;6247072;28;20207;-67
2022/05/16 03:45:25;;;;;;;1.20;1.10;;;8.80;72.70;;;;;;6270223;28;20601;-67
2022/05/16 03:48:31;;;;;;;0.93;0.93;;;8.80;73.70;;;;;;6270642;28;20220;-68
2022/05/16 03:51:36;;;;;;;2.28;0.93;;;8.80;73.20;;;;;;6253846;28;20231;-68
2022/05/16 03:54:42;;;;;;;3.72;1.10;;;8.80;73.30;;;;;;6275549;28;20311;-69
2022/05/16 03:57:47;;;;;;;0.90;0.90;;;8.70;73.00;;;;;;6276077;28;20208;-68
2022/05/16 04:00:54;;;;;;;0.98;0.95;;;8.70;73.20;;;;;;6275865;28;20524;-67
2022/05/16 04:03:59;;;;;;;1.02;1.02;;;8.70;72.90;;;;;;6275982;28;20230;-67
2022/05/16 04:07:05;;;;;;;1.20;0.90;;;8.70;73.40;;;;;;6275770;28;20204;-68
2022/05/16 04:10:12;;;;;;;1.58;0.93;;;8.80;72.70;;;;;;6274891;28;20242;-67
2022/05/16 04:13:18;;;;;;;1.00;1.00;;;8.80;71.80;;;;;;6275784;28;20231;-67
2022/05/16 04:16:26;;;;;;;0.98;0.93;;;8.80;72.10;;;;;;6275848;28;20605;-67
2022/05/16 04:19:31;;;;;;;1.15;1.05;;;8.80;72.20;;;;;;6275423;28;20239;-68
2022/05/16 04:22:37;;;;;;;3.08;1.20;;;8.80;72.20;;;;;;6274035;28;20208;-69
2022/05/16 04:25:43;;;;;;;4.93;1.20;;;8.70;72.20;;;;;;6275535;28;20204;-68
2022/05/16 04:28:49;;;;;;;1.75;1.10;;;8.70;72.40;;;;;;6274987;28;20334;-67
2022/05/16 04:31:56;;;;;;;1.20;1.00;;;8.80;72.20;;;;;;6275568;28;20567;-67
2022/05/16 04:35:01;;;;;;;2.05;0.95;;;8.70;70.60;;;;;;6274704;28;20228;-68
2022/05/16 04:38:07;;;;;;;1.80;1.13;;;8.70;70.60;;;;;;6274908;28;20230;-68
2022/05/16 04:44:38;;;;;;;1.65;1.20;;;8.70;69.40;;;;;;6274518;28;20232;-68
2022/05/16 04:47:47;;;;;;;2.10;1.20;;;8.70;69.80;;;;;;6274409;28;20292;-68
2022/05/16 04:50:52;;;;;;;1.10;1.10;;;8.80;69.90;;;;;;6274794;28;20654;-68
2022/05/16 04:53:58;;;;;;;1.17;1.10;;;8.80;69.50;;;;;;6274404;28;20627;-67
2022/05/16 04:57:04;;;;;;;2.95;1.05;;;8.90;69.50;;;;;;6274718;28;20235;-68
2022/05/16 05:00:13;;;;;;;1.00;1.00;;;9.00;69.30;;;;;;6274242;28;20231;-68
2022/05/16 05:03:21;;;;;;;1.35;1.10;;;9.00;69.00;;;;;;6273045;28;20228;-68
2022/05/16 05:06:27;;;;;;;1.10;1.10;;;9.00;67.70;;;;;;6274369;28;20701;-68
2022/05/16 05:14:31;;;;;;;1.70;1.38;;;9.00;67.00;;;;;;6273686;28;20236;-68
2022/05/16 05:16:22;;;;;;;1.95;1.10;;;9.10;67.60;;;;;;6274469;28;20678;-68
2022/05/16 05:19:30;;;;;;;1.13;1.00;;;9.10;67.30;;;;;;6273654;28;20228;-68
2022/05/16 05:22:35;;;;;;;1.10;1.00;;;9.00;67.30;;;;;;6273868;28;20208;-68
2022/05/16 05:25:40;;;;;;;1.10;1.10;;;9.10;67.80;;;;;;6273057;28;20208;-68
2022/05/16 05:28:45;;;;;;;1.77;1.00;;;9.00;67.10;;;;;;6271890;28;20686;-69
2022/05/16 05:31:51;;;;;;;2.30;1.10;;;9.10;67.70;;;;;;6255793;28;20208;-68
2022/05/16 05:34:58;;;;;;;7.53;1.20;;;9.00;67.10;;;;;;6273733;28;20224;-68
2022/05/16 05:38:03;;;;;;;1.10;1.10;;;9.10;68.40;;;;;;6273402;28;20228;-67
2022/05/16 05:41:12;;;;;;;1.90;1.10;;;9.30;68.80;;;;;;6273611;28;20218;-67
2022/05/16 05:44:17;;;;;;;2.78;1.00;;;9.40;67.10;;;;;;6272712;28;20231;-68
2022/05/16 05:47:23;;;;;;;1.35;1.20;;;9.50;66.50;;;;;;6273738;28;20216;-68
2022/05/16 05:50:30;;;;;;;1.35;1.25;;;9.70;66.30;;;;;;6272882;28;20232;-68
2022/05/16 05:53:37;;;;;;;0.95;0.95;;;9.80;64.80;;;;;;6273100;28;20228;-68
2022/05/16 05:56:42;;;;;;;1.77;1.10;;;9.80;64.20;;;;;;6273440;28;20242;-66
2022/05/16 05:59:48;;;;;;;1.02;1.02;;;9.70;65.40;;;;;;6272327;28;20232;-68
2022/05/16 06:02:53;;;;;;;1.25;0.90;;;9.90;65.00;;;;;;6272649;28;20204;-69
2022/05/16 06:06:00;;;;;;;2.80;1.23;;;10.10;64.00;;;;;;6272864;28;20208;-68
2022/05/16 06:09:05;;;;;;;1.08;1.08;;;10.10;65.00;;;;;;6272451;28;20241;-68
2022/05/16 06:12:12;;;;;;;2.35;1.20;;;10.20;64.10;;;;;;6272713;28;20239;-68
2022/05/16 06:15:18;;;;;;;4.05;1.17;;;10.30;63.10;;;;;;6272629;28;20231;-68
2022/05/16 06:18:24;;;;;;;3.05;1.20;;;10.10;61.80;;;;;;6272484;28;20231;-68
2022/05/16 06:21:30;;;;;;;1.42;1.30;;;9.90;62.00;;;;;;6272993;28;20210;-67
2022/05/16 06:27:59;;;;;;;1.15;1.08;;;10.00;60.80;;;;;;6271979;28;20250;-68
2022/05/16 06:31:06;;;;;;;1.23;1.13;;;10.10;61.60;;;;;;6272246;28;20215;-68
2022/05/16 06:34:11;;;;;;;0.90;0.90;;;10.30;61.10;;;;;;6271299;28;20577;-70
2022/05/16 06:37:19;;;;;;;1.08;1.08;;;10.50;61.00;;;;;;6272584;28;20228;-68
2022/05/16 06:40:25;;;;;;;1.63;1.23;;;10.40;61.60;;;;;;6271924;28;20251;-69
2022/05/16 06:43:31;;;;;;;1.05;1.02;;;10.30;60.00;;;;;;6271503;28;20232;-68
2022/05/16 06:46:36;;;;;;;1.25;1.10;;;10.20;60.20;;;;;;6271892;28;20212;-68
2022/05/16 06:49:42;;;;;;;1.00;1.00;;;10.50;61.00;;;;;;6271464;28;20236;-69
2022/05/16 06:52:49;;;;;;;2.20;1.20;;;10.30;61.50;;;;;;6273106;28;20214;-68
2022/05/16 06:55:54;;;;;;;1.58;1.10;;;10.60;62.70;;;;;;6272339;28;20211;-69
2022/05/16 06:58:59;;;;;;;1.23;1.23;;;10.60;62.00;;;;;;6273925;28;20232;-69
2022/05/16 07:02:06;;;;;;;3.65;1.88;;;10.60;60.00;;;;;;6277041;28;20564;-68
2022/05/16 07:05:14;;;;;;;2.33;1.10;;;10.60;60.20;;;;;;6271767;28;20588;-69
2022/05/16 07:08:24;;;;;;;3.95;3.28;;;10.80;60.10;;;;;;6273180;28;20550;-70
2022/05/16 07:11:30;;;;;;;11.82;8.55;;;10.80;61.20;;;;;;6272077;28;20238;-68
2022/05/16 07:14:38;;;;;;;7.65;6.82;;;10.80;60.00;;;;;;6271757;28;20588;-70
2022/05/16 07:17:44;;;;;;;5.75;5.35;;;10.80;59.80;;;;;;6271824;28;20224;-69
2022/05/16 07:20:49;;;;;;;10.38;8.52;;;10.70;59.60;;;;;;6272665;28;20211;-69
2022/05/16 07:23:56;;;;;;;3.85;2.22;;;10.70;59.60;;;;;;6273344;28;20224;-69
2022/05/16 07:30:25;;;;;;;1.63;1.55;;;11.00;59.20;;;;;;6272035;28;20232;-68
2022/05/16 07:33:31;;;;;;;1.35;1.35;;;11.00;59.30;;;;;;6275865;28;20602;-68
2022/05/16 07:36:36;;;;;;;3.15;1.20;;;11.10;59.10;;;;;;6279521;28;20207;-66
2022/05/16 07:39:43;;;;;;;1.25;1.25;;;11.30;59.10;;;;;;6281525;28;20232;-67
2022/05/16 07:42:48;;;;;;;1.98;1.10;;;11.30;59.20;;;;;;6292275;28;20279;-66
2022/05/16 07:45:54;;;;;;;1.42;1.20;;;11.30;58.00;;;;;;6288049;28;20218;-69
2022/05/16 07:48:59;;;;;;;2.95;2.75;;;11.20;58.10;;;;;;6271308;28;20609;-68
2022/05/16 07:52:06;;;;;;;2.47;2.00;;;11.20;58.20;;;;;;6271090;28;20214;-68
2022/05/16 07:55:16;;;;;;;1.55;1.45;;;11.10;57.70;;;;;;6253177;28;20234;-69
2022/05/16 07:58:23;;;;;;;7.03;1.60;;;11.30;59.20;;;;;;6271303;28;20232;-67
2022/05/16 08:01:31;;;;;;;3.53;1.30;;;11.40;58.10;;;;;;6253639;28;20208;-68
2022/05/16 08:04:37;;;;;;;4.22;2.10;;;11.40;57.70;;;;;;6270824;28;20601;-69
2022/05/16 08:11:04;;;;;;;2.72;1.40;;;11.30;57.90;;;;;;6270822;28;20251;-69
2022/05/16 08:14:12;;;;;;;3.22;1.20;;;11.60;57.70;;;;;;6271098;28;20238;-71
2022/05/16 08:17:18;;;;;;;1.52;0.80;;;11.60;58.50;;;;;;6270390;28;20204;-69
2022/05/16 08:20:23;;;;;;;6.30;5.72;;;11.70;58.90;;;;;;6270408;28;20346;-69
2022/05/16 08:23:30;;;;;;;2.75;2.25;;;11.60;58.10;;;;;;6270977;28;20240;-68
2022/05/16 08:26:37;;;;;;;3.40;1.48;;;11.40;57.80;;;;;;6271203;28;20643;-70
2022/05/16 08:29:42;;;;;;;6.57;1.52;;;11.40;58.90;;;;;;6271414;28;20244;-68
2022/05/16 08:32:48;;;;;;;1.45;1.15;;;11.30;57.40;;;;;;6270515;28;20564;-69
2022/05/16 08:42:55;;;;;;;5.97;3.90;;;11.50;60.00;;;;;;6239495;28;20208;-69
2022/05/16 08:46:33;;;;;;;2.90;2.75;;;11.50;59.50;;;;;;6275582;28;20184;-69
2022/05/16 08:49:43;;;;;;;1.33;1.23;;;11.40;58.30;;;;;;6274607;28;20232;-68
2022/05/16 08:52:55;;;;;;;2.30;1.38;;;11.50;59.60;;;;;;6274822;28;20227;-70
2022/05/16 08:56:04;;;;;;;2.92;1.20;;;11.50;58.30;;;;;;6275010;28;20208;-68
2022/05/16 08:59:15;;;;;;;1.98;1.17;;;11.60;59.20;;;;;;6274269;28;20232;-69
2022/05/16 09:02:24;;;;;;;2.75;2.55;;;11.70;58.90;;;;;;6275871;28;20188;-69
2022/05/16 09:05:36;;;;;;;1.88;1.30;;;11.80;58.80;;;;;;6274478;28;20228;-68
2022/05/16 09:08:49;;;;;;;1.33;1.33;;;11.90;58.10;;;;;;6274252;28;20598;-69
2022/05/16 09:12:11;;;;;;;1.30;1.05;;;11.90;58.40;;;;;;6274537;28;20235;-69
2022/05/16 09:15:32;;;;;;;1.25;1.25;;;11.90;59.30;;;;;;6274286;28;20687;-68
2022/05/16 09:18:43;;;;;;;2.83;1.15;;;12.00;58.70;;;;;;6273429;28;20234;-69
2022/05/16 09:22:01;;;;;;;1.85;0.98;;;12.00;58.90;;;;;;6274304;28;20693;-69
2022/05/16 09:25:14;;;;;;;3.65;1.38;;;11.80;58.00;;;;;;6273596;28;20236;-69
2022/05/16 09:28:37;;;;;;;1.02;0.93;;;11.90;58.70;;;;;;6273954;28;20234;-68
2022/05/16 09:31:48;;;;;;;2.20;1.10;;;11.90;57.60;;;;;;6274710;28;20220;-69
2022/05/16 09:35:01;;;;;;;1.40;1.30;;;12.00;57.50;;;;;;6273725;28;20249;-69
2022/05/16 09:38:08;;;;;;;2.08;1.02;;;12.10;57.80;;;;;;6273940;28;20227;-68
2022/05/16 09:41:24;;;;;;;5.75;1.67;;;12.10;57.20;;;;;;6273649;28;20223;-68
2022/05/16 09:44:32;;;;;;;1.52;1.42;;;12.20;57.40;;;;;;6273284;28;20238;-69
2022/05/16 09:47:43;;;;;;;9.70;1.40;;;12.20;57.30;;;;;;6273411;28;20207;-68
2022/05/16 09:51:00;;;;;;;3.25;1.70;;;12.20;56.50;;;;;;6274762;28;20208;-69
2022/05/16 09:54:14;;;;;;;1.15;1.05;;;12.20;57.30;;;;;;6276275;28;20236;-68
2022/05/16 09:57:25;;;;;;;4.43;1.40;;;12.20;57.00;;;;;;6255964;28;20204;-68
2022/05/16 10:00:41;;;;;;;2.55;2.33;;;12.30;57.10;;;;;;6272881;28;20231;-68
2022/05/16 10:03:50;;;;;;;1.40;1.30;;;12.30;56.30;;;;;;6272713;28;20224;-70
2022/05/16 10:06:59;;;;;;;1.48;1.38;;;12.40;56.60;;;;;;6273099;28;20208;-69
2022/05/16 10:10:05;;;;;;;1.10;1.10;;;12.50;56.30;;;;;;6272585;28;20228;-69
2022/05/16 10:13:11;;;;;;;2.13;1.20;;;12.40;56.30;;;;;;6272577;28;20235;-68
2022/05/16 10:16:17;;;;;;;1.77;1.77;;;12.40;56.60;;;;;;6272851;28;20210;-70
2022/05/16 10:19:27;;;;;;;1.92;1.80;;;12.50;56.80;;;;;;6272610;28;20224;-68
2022/05/16 10:22:33;;;;;;;1.75;1.00;;;12.50;56.30;;;;;;6272852;28;20220;-69
2022/05/16 10:26:02;;;;;;;1.02;1.00;;;12.70;55.70;;;;;;6271630;28;20216;-69
2022/05/16 10:29:12;;;;;;;1.00;1.00;;;12.80;55.10;;;;;;6272420;28;20249;-69
2022/05/16 10:35:57;;;;;;;1.65;1.65;;;12.90;54.60;;;;;;6271370;28;20220;-68
2022/05/16 10:39:13;;;;;;;1.67;1.45;;;12.90;54.90;;;;;;6272290;28;20608;-69
2022/05/16 10:42:24;;;;;;;1.58;1.50;;;12.90;55.40;;;;;;6272374;28;20224;-70
2022/05/16 10:45:31;;;;;;;2.75;1.50;;;12.80;55.00;;;;;;6272228;28;20269;-69
2022/05/16 10:48:45;;;;;;;2.72;1.00;;;12.70;54.70;;;;;;6271701;28;20232;-70
2022/05/16 10:51:56;;;;;;;1.55;0.98;;;12.80;55.30;;;;;;6272457;28;20212;-69
2022/05/16 10:55:02;;;;;;;1.20;1.10;;;13.10;55.10;;;;;;6271884;28;20339;-69
2022/05/16 10:58:18;;;;;;;2.38;1.10;;;13.20;54.70;;;;;;6271706;28;20603;-69
2022/05/16 11:01:32;;;;;;;1.00;1.00;;;13.50;55.30;;;;;;6270923;28;20236;-69
2022/05/16 11:05:23;;;;;;;1.70;1.00;;;13.40;53.90;;;;;;6271715;28;20228;-68
2022/05/16 11:08:36;;;;;;;2.22;1.40;;;13.50;54.10;;;;;;6270059;28;20274;-69
2022/05/16 11:11:50;;;;;;;0.90;0.90;;;13.70;53.90;;;;;;6271079;28;20282;-68
2022/05/16 11:15:04;;;;;;;2.33;1.48;;;13.80;53.10;;;;;;6271359;28;20234;-70
2022/05/16 11:18:22;;;;;;;1.38;1.38;;;13.80;52.60;;;;;;6271512;28;20224;-68
2022/05/16 11:21:41;;;;;;;1.13;1.13;;;13.90;52.30;;;;;;6272128;28;20235;-69
2022/05/16 11:24:53;;;;;;;1.00;1.00;;;14.00;52.10;;;;;;6271455;28;20232;-69
2022/05/16 11:28:05;;;;;;;1.65;1.10;;;14.00;52.90;;;;;;6271367;28;20224;-69
2022/05/16 11:31:16;;;;;;;2.00;1.92;;;14.10;51.90;;;;;;6271680;28;20212;-69
2022/05/16 11:34:25;;;;;;;1.20;1.20;;;14.10;52.50;;;;;;6271504;28;20241;-69
2022/05/16 11:37:52;;;;;;;0.98;0.88;;;14.20;51.80;;;;;;6271567;28;20204;-69
2022/05/16 11:41:13;;;;;;;1.17;0.82;;;14.10;52.00;;;;;;6271317;28;20212;-68
2022/05/16 11:44:29;;;;;;;1.20;0.93;;;14.20;51.90;;;;;;6270886;28;20242;-68
2022/05/16 11:47:40;;;;;;;2.15;1.50;;;14.20;50.60;;;;;;6271750;28;20208;-68
2022/05/16 11:51:14;;;;;;;1.13;0.98;;;14.10;50.60;;;;;;6270473;28;20200;-69
2022/05/16 11:54:24;;;;;;;1.27;0.80;;;14.00;51.40;;;;;;6270975;28;20235;-68
2022/05/16 12:00:58;;;;;;;2.30;1.10;;;14.10;51.60;;;;;;6270156;28;20698;-69
2022/05/16 12:04:13;;;;;;;1.15;0.93;;;14.10;51.60;;;;;;6270771;28;20227;-69
2022/05/16 12:07:24;;;;;;;0.80;0.80;;;14.20;50.70;;;;;;6271470;28;20308;-70
2022/05/16 12:10:32;;;;;;;2.28;0.88;;;14.20;49.80;;;;;;6270830;28;20234;-68
2022/05/16 12:14:03;;;;;;;0.80;0.80;;;14.20;49.70;;;;;;6272560;28;20236;-68
2022/05/16 12:17:21;;;;;;;3.80;0.80;;;14.10;50.00;;;;;;6276238;28;20214;-69
2022/05/16 12:21:09;;;;;;;1.75;0.80;;;14.10;50.30;;;;;;6275173;28;20238;-68
2022/05/16 12:24:32;;;;;;;1.00;0.70;;;14.00;50.30;;;;;;6240564;28;20242;-68
2022/05/16 12:27:41;;;;;;;1.40;0.60;;;14.10;50.00;;;;;;6276404;28;20208;-68
2022/05/16 12:30:54;;;;;;;1.50;1.50;;;14.20;48.50;;;;;;6276211;28;20210;-69
2022/05/16 12:33:59;;;;;;;2.38;1.17;;;14.30;49.50;;;;;;6275183;28;20246;-68
2022/05/16 12:37:10;;;;;;;2.08;1.27;;;14.30;49.30;;;;;;6275790;28;20200;-68
2022/05/16 12:40:23;;;;;;;1.55;0.93;;;14.30;48.90;;;;;;6275363;28;20246;-68
2022/05/16 12:43:39;;;;;;;2.72;0.85;;;14.20;49.00;;;;;;6275070;28;20318;-70
2022/05/16 12:47:27;;;;;;;2.33;1.08;;;14.10;48.50;;;;;;6274383;28;20567;-67
2022/05/16 12:51:21;;;;;;;1.45;0.80;;;14.10;48.60;;;;;;6274473;28;20224;-68
2022/05/16 12:54:57;;;;;;;2.17;0.88;;;14.10;48.80;;;;;;6277598;28;20228;-68
2022/05/16 12:58:11;;;;;;;2.28;1.00;;;14.20;48.50;;;;;;6287416;28;20232;-68
2022/05/16 13:01:26;;;;;;;1.77;0.80;;;14.40;48.60;;;;;;6276356;28;20208;-68
2022/05/16 13:04:56;;;;;;;1.10;1.10;;;14.30;47.70;;;;;;6274374;28;20232;-68
2022/05/16 13:08:19;;;;;;;0.70;0.70;;;14.10;48.00;;;;;;6274666;28;20227;-69
2022/05/16 13:11:30;;;;;;;0.68;0.65;;;14.20;48.50;;;;;;6274767;28;20586;-68
2022/05/16 13:14:41;;;;;;;1.55;0.70;;;14.20;47.90;;;;;;6274402;28;20690;-69
2022/05/16 13:17:53;;;;;;;0.70;0.70;;;14.10;48.00;;;;;;6274283;28;20204;-68
2022/05/16 13:21:05;;;;;;;0.63;0.50;;;14.10;49.20;;;;;;6274125;28;20647;-68
2022/05/16 13:24:13;;;;;;;0.50;0.50;;;14.00;47.50;;;;;;6273215;28;20242;-68
2022/05/16 13:30:45;;;;;;;1.27;0.73;;;13.90;48.30;;;;;;6273284;28;20228;-68
2022/05/16 13:33:50;;;;;;;0.57;0.57;;;13.80;48.10;;;;;;6273980;28;20236;-67
2022/05/16 13:36:57;;;;;;;0.60;0.60;;;14.00;48.80;;;;;;6273898;28;20208;-69
2022/05/16 13:40:07;;;;;;;1.23;0.93;;;14.00;47.80;;;;;;6255379;28;20516;-69
2022/05/16 13:43:14;;;;;;;0.70;0.70;;;14.00;47.70;;;;;;6274070;28;20232;-70
2022/05/16 13:46:21;;;;;;;2.20;0.70;;;14.10;47.50;;;;;;6273920;28;20203;-70
2022/05/16 13:49:28;;;;;;;0.70;0.70;;;14.20;47.20;;;;;;6273450;28;20231;-69
2022/05/16 13:52:41;;;;;;;1.35;0.70;;;14.20;47.10;;;;;;6274037;28;20638;-68
2022/05/16 13:55:50;;;;;;;0.80;0.68;;;14.30;47.20;;;;;;6273005;28;20698;-67
2022/05/16 13:58:56;;;;;;;0.57;0.57;;;14.40;46.90;;;;;;6273250;28;20234;-68
2022/05/16 14:02:08;;;;;;;0.80;0.70;;;14.50;46.80;;;;;;6273074;28;20211;-67
2022/05/16 14:05:30;;;;;;;0.52;0.52;;;14.70;46.20;;;;;;6273011;28;20235;-68
2022/05/16 14:08:44;;;;;;;0.60;0.60;;;14.60;46.00;;;;;;6272683;28;20231;-68
2022/05/16 14:11:50;;;;;;;0.57;0.57;;;14.40;45.50;;;;;;6273828;28;20670;-70
2022/05/16 14:15:06;;;;;;;1.85;0.77;;;14.30;45.10;;;;;;6272656;28;20234;-69
2022/05/16 14:18:38;;;;;;;0.60;0.60;;;14.20;45.90;;;;;;6254421;28;20220;-68
2022/05/16 14:21:51;;;;;;;3.40;0.90;;;14.10;45.90;;;;;;6272960;28;20203;-69
2022/05/16 14:25:07;;;;;;;0.63;0.60;;;14.10;46.00;;;;;;6272424;28;20251;-67
2022/05/16 14:28:21;;;;;;;0.70;0.70;;;14.00;46.30;;;;;;6273242;28;20239;-68
2022/05/16 14:31:32;;;;;;;3.50;0.80;;;13.90;46.30;;;;;;6257881;28;20204;-69
2022/05/16 14:34:41;;;;;;;0.55;0.55;;;13.90;46.40;;;;;;6275413;28;20253;-68
2022/05/16 14:37:50;;;;;;;0.88;0.88;;;14.00;46.60;;;;;;6254895;28;20202;-68
2022/05/16 14:41:08;;;;;;;0.60;0.60;;;14.10;46.30;;;;;;6272693;28;20208;-68
2022/05/16 14:44:20;;;;;;;0.63;0.63;;;14.30;46.10;;;;;;6270640;28;20271;-68
2022/05/16 14:47:39;;;;;;;0.65;0.65;;;14.30;46.60;;;;;;6272693;28;20212;-69
2022/05/16 14:50:44;;;;;;;0.60;0.60;;;14.50;45.50;;;;;;6271669;28;20208;-68
2022/05/16 14:53:51;;;;;;;1.75;0.75;;;14.60;44.90;;;;;;6271857;28;20228;-69
2022/05/16 14:56:58;;;;;;;0.60;0.60;;;14.70;44.70;;;;;;6272116;28;20208;-67
2022/05/16 15:00:06;;;;;;;1.27;0.75;;;14.70;43.90;;;;;;6270031;28;20239;-68
2022/05/16 15:06:42;;;;;;;0.80;0.70;;;15.00;44.30;;;;;;6271996;28;20223;-69
2022/05/16 15:09:48;;;;;;;1.35;0.85;;;15.10;44.30;;;;;;6271103;28;20246;-69
2022/05/16 15:12:58;;;;;;;1.30;0.70;;;15.00;43.50;;;;;;6270739;28;20227;-72
2022/05/16 15:16:04;;;;;;;0.85;0.70;;;15.00;43.40;;;;;;6247234;28;20215;-67
2022/05/16 15:19:11;;;;;;;0.65;0.65;;;14.90;42.80;;;;;;6246986;28;20228;-67
2022/05/16 15:22:17;;;;;;;0.80;0.80;;;14.80;41.90;;;;;;6246937;28;20201;-68
2022/05/16 15:25:23;;;;;;;0.60;0.60;;;14.70;40.80;;;;;;6246991;28;20237;-68
2022/05/16 15:28:30;;;;;;;1.42;0.70;;;14.50;40.70;;;;;;6229273;28;20248;-67
2022/05/16 15:31:38;;;;;;;0.95;0.90;;;14.50;41.80;;;;;;6247816;28;20223;-69
2022/05/16 15:34:43;;;;;;;2.35;1.33;;;14.60;41.00;;;;;;6246804;28;20244;-68
2022/05/16 15:37:49;;;;;;;0.88;0.88;;;14.70;41.40;;;;;;6246592;28;20548;-67
2022/05/16 15:40:55;;;;;;;3.50;0.80;;;14.80;41.20;;;;;;6247586;28;20238;-67
2022/05/16 15:44:03;;;;;;;0.75;0.75;;;14.80;42.20;;;;;;6246353;28;20251;-67
2022/05/16 15:47:15;;;;;;;1.20;1.02;;;14.80;41.10;;;;;;6246823;28;20551;-67
2022/05/16 15:50:24;;;;;;;0.82;0.82;;;14.80;41.60;;;;;;6241799;28;20244;-69
2022/05/16 15:53:30;;;;;;;1.00;1.00;;;14.80;40.80;;;;;;6202604;28;20696;-65
2022/05/16 15:56:36;;;;;;;1.00;0.90;;;14.90;41.00;;;;;;6203052;28;20264;-67
2022/05/16 15:59:43;;;;;;;0.77;0.77;;;14.90;40.80;;;;;;6202423;28;20612;-68
2022/05/16 16:02:51;;;;;;;3.28;0.93;;;14.90;40.80;;;;;;6202396;28;20225;-68
2022/05/16 16:09:20;;;;;;;0.70;0.70;;;14.80;40.80;;;;;;6202606;28;20263;-67
2022/05/16 16:12:26;;;;;;;2.35;0.73;;;14.80;41.60;;;;;;6221954;28;20225;-66
2022/05/16 16:15:34;;;;;;;1.85;0.93;;;14.80;51.60;;;;;;6226634;28;20240;-67
2022/05/16 16:18:41;;;;;;;3.63;0.82;;;14.50;53.80;;;;;;6226026;28;20236;-66
2022/05/16 16:21:46;;;;;;;2.00;0.90;;;14.40;54.40;;;;;;6227480;28;20209;-67
2022/05/16 16:24:51;;;;;;;1.52;0.98;;;14.40;54.20;;;;;;6225871;28;20241;-66
2022/05/16 16:27:57;;;;;;;1.13;1.02;;;14.30;54.90;;;;;;6224683;28;20209;-67
2022/05/16 16:31:04;;;;;;;1.05;0.80;;;14.40;55.10;;;;;;6226633;28;20213;-68
2022/05/16 16:34:17;;;;;;;3.45;1.20;;;14.40;55.60;;;;;;6224871;28;20551;-68
2022/05/16 16:37:22;;;;;;;1.00;0.90;;;14.30;56.10;;;;;;6227009;28;20221;-68
2022/05/16 16:40:28;;;;;;;1.05;0.85;;;14.30;56.40;;;;;;6226646;28;20229;-67
2022/05/16 16:43:37;;;;;;;2.15;1.17;;;14.10;56.80;;;;;;6226088;28;20233;-68
2022/05/16 16:46:46;;;;;;;3.38;0.90;;;14.00;57.80;;;;;;6229382;28;20232;-67
2022/05/16 16:49:54;;;;;;;1.73;1.00;;;13.90;57.10;;;;;;6228191;28;20252;-68
2022/05/16 16:59:52;;;;;;;0.70;0.65;;;13.60;57.40;;;;;;6224423;28;20237;-65
2022/05/16 17:02:59;;;;;;;1.00;0.88;;;13.60;57.60;;;;;;6225054;28;20270;-66
2022/05/16 17:06:05;;;;;;;0.98;0.88;;;13.50;57.90;;;;;;6225979;28;20235;-67
2022/05/16 17:09:10;;;;;;;0.80;0.80;;;13.50;58.10;;;;;;6225719;28;20602;-67
2022/05/16 17:12:18;;;;;;;0.95;0.82;;;13.40;58.10;;;;;;6225658;28;20248;-68
2022/05/16 17:15:23;;;;;;;2.65;0.90;;;13.30;58.20;;;;;;6225294;28;20240;-69
2022/05/16 17:18:31;;;;;;;0.82;0.68;;;13.20;58.50;;;;;;6223864;28;20707;-68
2022/05/16 17:21:38;;;;;;;1.63;0.70;;;13.00;59.40;;;;;;6225680;28;20209;-68
2022/05/16 17:24:43;;;;;;;3.25;0.73;;;12.90;60.10;;;;;;6225520;28;20719;-67
2022/05/16 17:27:49;;;;;;;1.00;0.68;;;12.80;60.40;;;;;;6224759;28;20229;-67
2022/05/16 17:30:56;;;;;;;0.60;0.60;;;12.80;59.80;;;;;;6225422;28;20211;-69